Time;durP1;ratioP1;P1;durP2;ratioP2;P2;SDS_P1;SDS_P2;PMS_P1;PMS_P2;Temp;Humidity;BMP_temperature;BMP_pressure;BME280_temperature;BME280_humidity;BME280_pressure;Samples;Min_cycle;Max_cycle;Signal;HPM_P1;HPM_P2
2022/08/03 00:02:22;;;;;;;7.75;2.95;;;19.80;99.90;;;;;;5071010;28;20048;-78
2022/08/03 00:04:48;;;;;;;8.15;2.80;;;19.80;99.90;;;;;;5042377;28;20066;-75
2022/08/03 00:07:14;;;;;;;8.40;2.95;;;19.80;99.90;;;;;;5102851;28;20048;-75
2022/08/03 00:09:40;;;;;;;8.07;3.28;;;19.80;99.90;;;;;;5078204;28;20097;-74
2022/08/03 00:12:06;;;;;;;10.23;2.92;;;19.70;99.90;;;;;;5096706;28;20402;-77
2022/08/03 00:14:31;;;;;;;11.57;4.00;;;19.70;99.90;;;;;;5092611;28;20037;-75
2022/08/03 00:16:57;;;;;;;8.43;3.13;;;19.70;99.90;;;;;;5069146;28;20056;-74
2022/08/03 00:19:23;;;;;;;11.95;4.18;;;19.60;99.90;;;;;;5046479;28;20063;-75
2022/08/03 00:21:49;;;;;;;7.35;3.65;;;19.70;99.90;;;;;;5078373;28;20429;-74
2022/08/03 00:24:14;;;;;;;11.75;4.28;;;19.60;99.90;;;;;;5048210;28;20044;-74
2022/08/03 00:26:40;;;;;;;8.30;3.30;;;19.60;99.90;;;;;;5072055;28;20048;-75
2022/08/03 00:29:06;;;;;;;9.55;3.63;;;19.50;99.90;;;;;;5077993;28;20158;-74
2022/08/03 00:31:31;;;;;;;6.65;2.50;;;19.50;99.90;;;;;;5074500;28;20048;-75
2022/08/03 00:33:57;;;;;;;5.93;2.50;;;19.40;99.90;;;;;;5072856;28;20398;-78
2022/08/03 00:36:23;;;;;;;8.90;3.35;;;19.40;99.90;;;;;;5070459;28;20131;-74
2022/08/03 00:38:48;;;;;;;6.88;2.80;;;19.40;99.90;;;;;;5041359;28;20056;-74
2022/08/03 00:41:14;;;;;;;7.93;2.60;;;19.40;99.90;;;;;;5080548;28;20505;-74
2022/08/03 00:43:40;;;;;;;10.50;4.15;;;19.40;99.90;;;;;;5074593;28;20049;-74
2022/08/03 00:46:05;;;;;;;9.55;3.72;;;19.40;99.90;;;;;;5090232;28;20159;-74
2022/08/03 00:48:31;;;;;;;8.15;3.22;;;19.40;99.90;;;;;;5077358;28;20048;-73
2022/08/03 00:50:57;;;;;;;6.80;2.67;;;19.40;99.90;;;;;;5074369;28;20136;-74
2022/08/03 00:53:23;;;;;;;7.30;2.50;;;19.30;99.90;;;;;;5111687;28;20105;-74
2022/08/03 00:55:49;;;;;;;9.10;2.70;;;19.30;99.90;;;;;;5064678;28;20438;-75
2022/08/03 00:58:15;;;;;;;12.68;4.45;;;19.30;99.90;;;;;;5076650;28;20113;-74
2022/08/03 01:00:41;;;;;;;11.40;4.35;;;19.30;99.90;;;;;;5095909;28;20048;-74
2022/08/03 01:03:08;;;;;;;6.43;2.70;;;19.30;99.90;;;;;;5046330;28;20491;-73
2022/08/03 01:05:53;;;;;;;6.47;2.70;;;19.30;99.90;;;;;;5077091;28;20105;-74
2022/08/03 01:08:42;;;;;;;10.35;4.90;;;19.30;99.90;;;;;;5073753;28;20051;-73
2022/08/03 01:11:33;;;;;;;11.68;4.90;;;19.30;99.90;;;;;;5087487;28;20135;-74
2022/08/03 01:14:20;;;;;;;7.13;3.03;;;19.20;99.90;;;;;;5074004;28;20048;-74
2022/08/03 01:16:56;;;;;;;6.47;2.72;;;19.20;99.90;;;;;;5074892;28;20106;-73
2022/08/03 01:19:43;;;;;;;5.80;2.78;;;19.20;99.90;;;;;;5066540;28;20177;-73
2022/08/03 01:22:31;;;;;;;8.57;3.10;;;19.20;99.90;;;;;;5094973;28;20040;-73
2022/08/03 01:25:04;;;;;;;9.45;4.22;;;19.20;99.90;;;;;;5076769;28;20050;-79
2022/08/03 01:27:36;;;;;;;9.43;3.67;;;19.20;99.90;;;;;;5064388;28;20052;-74
2022/08/03 01:30:06;;;;;;;10.85;4.13;;;19.10;99.90;;;;;;5077178;28;20055;-73
2022/08/03 01:32:53;;;;;;;11.45;4.53;;;19.10;99.90;;;;;;5076243;28;20056;-73
2022/08/03 01:35:41;;;;;;;9.10;3.50;;;19.00;99.90;;;;;;5075739;28;20040;-74
2022/08/03 01:38:16;;;;;;;8.55;3.33;;;19.00;99.90;;;;;;5049466;28;20560;-74
2022/08/03 01:40:44;;;;;;;9.75;4.28;;;19.00;99.90;;;;;;5057326;28;20087;-74
2022/08/03 01:43:15;;;;;;;9.38;3.83;;;19.00;99.90;;;;;;5066987;28;20052;-74
2022/08/03 01:45:42;;;;;;;9.77;3.70;;;18.90;99.90;;;;;;5110184;28;20399;-74
2022/08/03 01:48:11;;;;;;;9.88;3.72;;;18.90;99.90;;;;;;5059680;28;20066;-74
2022/08/03 01:50:38;;;;;;;8.80;3.38;;;18.90;99.90;;;;;;5093890;28;20074;-74
2022/08/03 01:53:06;;;;;;;8.18;3.85;;;18.80;99.90;;;;;;5069682;28;20105;-75
2022/08/03 01:55:35;;;;;;;8.75;4.00;;;18.80;99.90;;;;;;5040310;28;20127;-74
2022/08/03 01:58:02;;;;;;;8.52;3.47;;;18.80;99.90;;;;;;5053686;28;20119;-75
2022/08/03 02:00:30;;;;;;;9.40;3.95;;;18.80;99.90;;;;;;5068187;28;20089;-74
2022/08/03 02:02:57;;;;;;;10.40;5.43;;;18.80;99.90;;;;;;5057667;28;20086;-74
2022/08/03 02:05:23;;;;;;;9.88;4.68;;;18.70;99.90;;;;;;5065524;28;20479;-74
2022/08/03 02:07:50;;;;;;;10.98;5.72;;;18.70;99.90;;;;;;5062051;28;20048;-74
2022/08/03 02:10:20;;;;;;;8.05;3.38;;;18.60;99.90;;;;;;5076399;28;20122;-73
2022/08/03 02:12:48;;;;;;;8.23;3.13;;;18.60;99.90;;;;;;5075610;28;20052;-74
2022/08/03 02:15:15;;;;;;;7.05;2.83;;;18.60;99.90;;;;;;5052811;28;20101;-75
2022/08/03 02:17:43;;;;;;;9.65;4.82;;;18.60;99.90;;;;;;5075922;28;20479;-75
2022/08/03 02:20:11;;;;;;;10.23;4.15;;;18.60;99.90;;;;;;5070134;28;20048;-75
2022/08/03 02:22:40;;;;;;;7.68;3.97;;;18.60;99.90;;;;;;5067426;28;20131;-74
2022/08/03 02:25:08;;;;;;;10.38;6.00;;;18.50;99.90;;;;;;5095365;28;20500;-75
2022/08/03 02:27:37;;;;;;;8.98;4.45;;;18.50;99.90;;;;;;5059459;28;20062;-75
2022/08/03 02:30:07;;;;;;;10.93;4.80;;;18.50;99.90;;;;;;5092051;28;20076;-75
2022/08/03 02:32:39;;;;;;;10.55;4.88;;;18.40;99.90;;;;;;5057506;28;20055;-75
2022/08/03 02:35:09;;;;;;;9.57;5.78;;;18.40;99.90;;;;;;5075558;28;20116;-75
2022/08/03 02:37:42;;;;;;;11.13;4.90;;;18.30;99.90;;;;;;5069376;28;20500;-75
2022/08/03 02:40:09;;;;;;;7.05;2.78;;;18.30;99.90;;;;;;5055046;28;20098;-74
2022/08/03 02:42:36;;;;;;;8.07;3.20;;;18.20;99.90;;;;;;5072535;28;20084;-75
2022/08/03 02:45:06;;;;;;;9.38;4.90;;;18.30;99.90;;;;;;5047962;28;20048;-75
2022/08/03 02:47:35;;;;;;;7.85;3.33;;;18.30;99.90;;;;;;5054444;28;20043;-75
2022/08/03 02:50:02;;;;;;;12.40;6.57;;;18.20;99.90;;;;;;5074647;28;20056;-74
2022/08/03 02:52:29;;;;;;;7.70;3.35;;;18.30;99.90;;;;;;5072735;28;20048;-75
2022/08/03 02:55:01;;;;;;;7.00;3.05;;;18.20;99.90;;;;;;5062729;28;20074;-74
2022/08/03 02:57:29;;;;;;;10.45;4.32;;;18.20;99.90;;;;;;5108122;28;20056;-74
2022/08/03 02:59:56;;;;;;;8.13;3.40;;;18.20;99.90;;;;;;5054829;28;20051;-74
2022/08/03 03:02:24;;;;;;;8.05;3.08;;;18.20;99.90;;;;;;5050930;28;20141;-79
2022/08/03 03:04:52;;;;;;;9.18;4.53;;;18.20;99.90;;;;;;5076754;28;20062;-74
2022/08/03 03:07:19;;;;;;;11.43;5.40;;;18.20;99.90;;;;;;5054693;28;20057;-74
2022/08/03 03:09:45;;;;;;;8.57;4.85;;;18.20;99.90;;;;;;5059869;28;20081;-74
2022/08/03 03:12:12;;;;;;;9.95;4.65;;;18.20;99.90;;;;;;5064665;28;20070;-74
2022/08/03 03:14:38;;;;;;;7.60;3.10;;;18.10;99.90;;;;;;5042518;28;20052;-74
2022/08/03 03:17:07;;;;;;;9.98;4.45;;;18.10;99.90;;;;;;5074284;28;20066;-73
2022/08/03 03:19:35;;;;;;;8.52;4.32;;;18.20;99.90;;;;;;5073136;28;20483;-74
2022/08/03 03:22:05;;;;;;;9.10;4.13;;;18.20;99.90;;;;;;5074729;28;20052;-73
2022/08/03 03:24:33;;;;;;;7.05;3.75;;;18.10;99.90;;;;;;5108353;28;20051;-73
2022/08/03 03:26:59;;;;;;;9.20;3.92;;;18.10;99.90;;;;;;5073701;28;20490;-74
2022/08/03 03:29:25;;;;;;;11.75;5.30;;;18.10;99.90;;;;;;5074335;28;20079;-75
2022/08/03 03:31:51;;;;;;;9.73;3.90;;;18.10;99.90;;;;;;5070947;28;20060;-74
2022/08/03 03:34:18;;;;;;;11.18;5.63;;;18.10;99.90;;;;;;5052314;28;20105;-73
2022/08/03 03:36:44;;;;;;;12.60;4.82;;;18.00;99.90;;;;;;5028104;28;1096002;-73
2022/08/03 03:39:10;;;;;;;8.77;4.82;;;18.00;99.90;;;;;;5070318;28;20069;-73
2022/08/03 03:41:36;;;;;;;11.65;4.97;;;18.00;99.90;;;;;;5055034;28;20040;-73
2022/08/03 03:44:02;;;;;;;11.75;5.38;;;18.00;99.90;;;;;;5070073;28;20046;-76
2022/08/03 03:46:28;;;;;;;11.63;5.60;;;18.00;99.90;;;;;;5038146;28;20036;-73
2022/08/03 03:48:54;;;;;;;8.38;4.03;;;18.00;99.90;;;;;;5102566;28;20095;-74
2022/08/03 03:51:19;;;;;;;9.77;4.72;;;18.00;99.90;;;;;;5057807;28;20054;-74
2022/08/03 03:54:05;;;;;;;9.00;4.50;;;18.00;99.90;;;;;;5074929;28;20055;-74
2022/08/03 03:56:32;;;;;;;9.70;4.70;;;18.00;99.90;;;;;;5078991;28;20059;-73
2022/08/03 03:58:58;;;;;;;10.18;4.90;;;18.10;99.90;;;;;;5058210;28;20047;-73
2022/08/03 04:01:24;;;;;;;14.13;4.93;;;18.00;99.90;;;;;;5069819;28;20037;-73
2022/08/03 04:03:50;;;;;;;10.68;4.30;;;18.00;99.90;;;;;;5070958;28;20040;-73
2022/08/03 04:11:50;;;;;;;10.98;4.32;;;17.90;99.90;;;;;;5078593;28;20052;-73
2022/08/03 04:14:19;;;;;;;7.70;3.67;;;18.00;99.90;;;;;;5058036;28;20167;-73
2022/08/03 04:16:52;;;;;;;10.70;4.20;;;17.90;99.90;;;;;;5074588;28;20084;-73
2022/08/03 04:19:24;;;;;;;12.32;4.10;;;17.90;99.90;;;;;;5107777;28;20055;-73
2022/08/03 04:21:54;;;;;;;10.68;4.20;;;17.90;99.90;;;;;;5068852;28;20044;-74
2022/08/03 04:24:22;;;;;;;11.05;4.28;;;17.90;99.90;;;;;;5049644;28;20063;-73
2022/08/03 04:26:49;;;;;;;10.75;4.15;;;17.90;99.90;;;;;;5094833;28;20093;-73
2022/08/03 04:29:16;;;;;;;9.00;3.45;;;17.90;99.90;;;;;;5101064;28;20060;-73
2022/08/03 04:31:44;;;;;;;9.77;3.90;;;17.90;99.90;;;;;;5053467;28;20136;-74
2022/08/03 04:34:10;;;;;;;13.20;4.07;;;17.90;99.90;;;;;;5101468;28;20059;-73
2022/08/03 04:36:41;;;;;;;10.02;4.40;;;17.90;99.90;;;;;;5078224;28;20059;-74
2022/08/03 04:39:15;;;;;;;9.57;3.90;;;17.90;99.90;;;;;;5077389;28;20384;-73
2022/08/03 04:41:44;;;;;;;11.13;4.55;;;17.90;99.90;;;;;;5061578;28;20040;-74
2022/08/03 04:44:12;;;;;;;10.65;3.90;;;17.90;99.90;;;;;;5077683;28;20055;-73
2022/08/03 04:46:39;;;;;;;8.45;3.70;;;17.90;99.90;;;;;;5078007;28;20047;-73
2022/08/03 04:49:06;;;;;;;12.35;4.75;;;18.00;99.90;;;;;;5059579;28;20127;-74
2022/08/03 04:51:33;;;;;;;12.63;4.60;;;18.00;99.90;;;;;;5103619;28;20080;-73
2022/08/03 04:53:59;;;;;;;10.63;3.80;;;18.00;99.90;;;;;;5057458;28;20052;-78
2022/08/03 04:56:25;;;;;;;11.80;5.03;;;18.00;99.90;;;;;;5077433;28;20139;-73
2022/08/03 04:58:51;;;;;;;10.00;4.35;;;18.10;99.90;;;;;;5083429;28;20464;-74
2022/08/03 05:01:19;;;;;;;11.23;4.32;;;18.10;99.90;;;;;;5074790;28;20051;-73
2022/08/03 05:03:45;;;;;;;9.68;4.50;;;18.10;99.90;;;;;;5076494;28;20062;-73
2022/08/03 05:06:11;;;;;;;11.45;5.30;;;18.20;99.90;;;;;;5107303;28;20042;-74
2022/08/03 05:08:38;;;;;;;10.32;4.80;;;18.20;99.90;;;;;;5076477;28;20047;-73
2022/08/03 05:11:03;;;;;;;12.73;5.20;;;18.20;99.90;;;;;;5059000;28;20120;-75
2022/08/03 05:13:29;;;;;;;13.30;5.15;;;18.20;99.90;;;;;;5094543;28;20527;-73
2022/08/03 05:15:55;;;;;;;9.85;4.93;;;18.30;99.90;;;;;;5077366;28;20122;-75
2022/08/03 05:18:21;;;;;;;10.50;5.40;;;18.30;99.90;;;;;;5110014;28;20040;-74
2022/08/03 05:20:47;;;;;;;10.38;5.13;;;18.40;99.90;;;;;;5094058;28;20479;-74
2022/08/03 05:23:12;;;;;;;12.00;5.30;;;18.40;99.90;;;;;;5089646;28;20047;-74
2022/08/03 05:25:38;;;;;;;13.15;4.78;;;18.50;99.90;;;;;;5089743;28;20044;-74
2022/08/03 05:28:04;;;;;;;10.43;5.30;;;18.50;99.90;;;;;;5071378;28;20084;-75
2022/08/03 05:30:30;;;;;;;12.68;4.90;;;18.70;99.90;;;;;;5041633;28;20048;-76
2022/08/03 05:32:55;;;;;;;10.45;4.95;;;18.90;99.90;;;;;;5072819;28;20087;-75
2022/08/03 05:35:24;;;;;;;11.70;4.47;;;19.30;99.90;;;;;;5091865;28;20040;-74
2022/08/03 05:37:50;;;;;;;8.88;4.18;;;19.90;99.90;;;;;;5090282;28;20474;-74
2022/08/03 05:40:15;;;;;;;10.90;4.53;;;20.30;99.90;;;;;;5074181;28;20071;-75
2022/08/03 05:42:41;;;;;;;14.10;4.60;;;20.70;99.90;;;;;;5090917;28;20108;-74
2022/08/03 05:45:13;;;;;;;9.48;3.70;;;21.30;99.90;;;;;;5092557;28;20040;-75
2022/08/03 05:47:40;;;;;;;11.32;3.85;;;21.90;99.90;;;;;;5056749;28;20536;-75
2022/08/03 05:50:06;;;;;;;12.13;3.70;;;22.30;99.90;;;;;;5074991;28;20060;-79
2022/08/03 05:52:32;;;;;;;11.80;4.07;;;22.80;99.90;;;;;;5071763;28;20042;-75
2022/08/03 05:54:58;;;;;;;11.85;3.70;;;23.20;99.90;;;;;;5093709;28;20123;-75
2022/08/03 05:57:26;;;;;;;11.40;3.95;;;23.20;99.90;;;;;;5091508;28;20036;-75
2022/08/03 05:59:52;;;;;;;12.35;3.70;;;23.40;99.90;;;;;;5093389;28;20048;-74
2022/08/03 06:02:18;;;;;;;13.07;3.80;;;23.90;99.90;;;;;;5075754;28;20048;-74
2022/08/03 06:04:44;;;;;;;10.52;3.90;;;24.30;99.90;;;;;;5091896;28;20040;-74
2022/08/03 06:07:10;;;;;;;9.07;3.65;;;24.40;99.90;;;;;;5110061;28;20051;-75
2022/08/03 06:09:35;;;;;;;13.02;3.72;;;24.20;99.90;;;;;;5078277;28;20059;-77
2022/08/03 06:12:01;;;;;;;12.00;3.63;;;24.10;99.90;;;;;;5068151;28;20056;-75
2022/08/03 06:14:27;;;;;;;11.38;3.28;;;24.50;99.90;;;;;;5087412;28;20536;-74
2022/08/03 06:16:52;;;;;;;11.93;3.67;;;24.60;99.90;;;;;;5096226;28;20051;-74
2022/08/03 06:19:18;;;;;;;12.73;4.00;;;24.70;99.90;;;;;;5072576;28;20113;-74
2022/08/03 06:21:43;;;;;;;10.63;3.58;;;25.00;99.90;;;;;;5072988;28;20044;-74
2022/08/03 06:24:09;;;;;;;11.20;4.30;;;25.00;99.90;;;;;;5074666;28;20044;-74
2022/08/03 06:26:35;;;;;;;11.70;3.90;;;25.10;99.90;;;;;;5087688;28;20706;-74
2022/08/03 06:29:01;;;;;;;11.60;3.40;;;25.30;99.90;;;;;;5074976;28;20044;-74
2022/08/03 06:31:28;;;;;;;10.52;3.47;;;25.60;99.90;;;;;;5093254;28;20048;-74
2022/08/03 06:33:54;;;;;;;15.15;3.70;;;25.80;99.90;;;;;;5070449;28;20052;-75
2022/08/03 06:36:20;;;;;;;14.05;3.70;;;25.90;99.90;;;;;;5092865;28;20051;-74
2022/08/03 06:38:46;;;;;;;11.35;3.72;;;25.80;99.90;;;;;;5071777;28;20068;-74
2022/08/03 06:41:11;;;;;;;12.32;3.70;;;26.00;99.90;;;;;;5051908;28;20487;-74
2022/08/03 06:43:37;;;;;;;11.10;4.20;;;26.00;99.90;;;;;;5061642;28;20067;-74
2022/08/03 06:46:06;;;;;;;10.57;3.78;;;26.10;99.90;;;;;;5057388;28;20043;-73
2022/08/03 06:48:32;;;;;;;10.80;3.30;;;26.10;99.90;;;;;;5098194;28;20396;-75
2022/08/03 06:50:58;;;;;;;11.25;3.90;;;26.10;99.90;;;;;;5061724;28;20052;-73
2022/08/03 06:53:23;;;;;;;10.93;3.22;;;26.00;99.90;;;;;;5059920;28;20418;-72
2022/08/03 06:55:50;;;;;;;11.50;3.60;;;26.10;99.90;;;;;;5072660;28;20496;-74
2022/08/03 06:58:15;;;;;;;11.85;4.07;;;26.50;99.90;;;;;;5085833;28;20063;-74
2022/08/03 07:00:41;;;;;;;12.63;3.72;;;26.40;99.90;;;;;;5090852;28;20040;-73
2022/08/03 07:03:07;;;;;;;12.70;3.95;;;26.30;99.90;;;;;;5069478;28;20068;-76
2022/08/03 07:05:34;;;;;;;11.80;3.72;;;26.00;99.90;;;;;;5083415;28;20470;-74
2022/08/03 07:08:01;;;;;;;11.85;3.45;;;26.00;99.90;;;;;;5059155;28;20488;-73
2022/08/03 07:10:28;;;;;;;14.18;3.50;;;26.00;99.90;;;;;;5059524;28;20403;-73
2022/08/03 07:12:53;;;;;;;12.32;3.55;;;25.90;99.90;;;;;;5056500;28;20127;-72
2022/08/03 07:15:19;;;;;;;13.10;3.80;;;26.30;99.90;;;;;;5059273;28;20175;-73
2022/08/03 07:17:45;;;;;;;10.25;3.15;;;26.20;99.90;;;;;;5072902;28;20265;-74
2022/08/03 07:20:12;;;;;;;13.63;3.20;;;26.50;99.90;;;;;;5045630;28;20520;-74
2022/08/03 07:22:38;;;;;;;10.23;3.25;;;26.90;99.90;;;;;;5079351;28;20123;-74
2022/08/03 07:25:04;;;;;;;11.93;3.42;;;27.00;99.90;;;;;;5044536;28;20246;-74
2022/08/03 07:27:30;;;;;;;12.05;3.20;;;26.90;99.90;;;;;;5052837;28;20058;-73
2022/08/03 07:29:57;;;;;;;9.32;3.20;;;26.80;99.90;;;;;;5092778;28;20043;-73
2022/08/03 07:32:23;;;;;;;11.00;3.05;;;26.90;99.90;;;;;;5058116;28;20127;-75
2022/08/03 07:34:49;;;;;;;14.43;3.53;;;26.80;99.90;;;;;;5074768;28;20047;-73
2022/08/03 07:37:14;;;;;;;12.05;3.25;;;26.80;99.90;;;;;;5092090;28;20056;-74
2022/08/03 07:39:40;;;;;;;10.95;3.42;;;26.70;99.90;;;;;;5049574;28;20139;-74
2022/08/03 07:42:06;;;;;;;11.27;3.17;;;26.60;99.90;;;;;;5086217;28;20056;-73
2022/08/03 07:44:32;;;;;;;12.70;3.13;;;26.70;99.90;;;;;;5072729;28;20395;-73
2022/08/03 07:46:57;;;;;;;14.93;3.40;;;26.90;99.90;;;;;;5050348;28;20044;-74
2022/08/03 07:49:23;;;;;;;11.50;3.22;;;26.90;99.90;;;;;;5055290;28;20044;-74
2022/08/03 07:52:46;;;;;;;10.13;3.20;;;27.00;99.90;;;;;;5054709;28;20075;-73
2022/08/03 07:54:34;;;;;;;15.15;3.50;;;27.20;99.90;;;;;;5076054;28;20048;-74
2022/08/03 07:57:00;;;;;;;14.32;3.50;;;27.00;99.50;;;;;;5092725;28;20444;-76
2022/08/03 07:59:25;;;;;;;11.80;3.40;;;27.10;99.90;;;;;;5074464;28;20102;-74
2022/08/03 08:01:52;;;;;;;12.73;3.60;;;27.20;99.90;;;;;;5077696;28;20048;-74
2022/08/03 08:04:18;;;;;;;13.85;3.50;;;27.20;99.60;;;;;;5077083;28;20085;-74
2022/08/03 08:06:44;;;;;;;13.40;3.55;;;27.30;99.20;;;;;;5078438;28;20074;-75
2022/08/03 08:09:10;;;;;;;15.90;3.70;;;27.20;99.00;;;;;;5095784;28;20079;-75
2022/08/03 08:11:36;;;;;;;23.10;4.10;;;27.30;98.90;;;;;;5077940;28;20101;-73
2022/08/03 08:14:02;;;;;;;10.90;3.40;;;27.40;99.30;;;;;;5078210;28;20059;-74
2022/08/03 08:16:28;;;;;;;13.15;3.47;;;27.50;99.20;;;;;;5077933;28;20066;-76
2022/08/03 08:18:54;;;;;;;11.77;3.30;;;27.70;98.50;;;;;;5077767;28;20044;-74
2022/08/03 08:21:19;;;;;;;14.85;3.72;;;27.80;98.20;;;;;;5095075;28;20079;-72
2022/08/03 08:23:45;;;;;;;12.30;3.40;;;27.90;97.80;;;;;;5096169;28;20144;-74
2022/08/03 08:26:11;;;;;;;14.27;3.90;;;27.90;97.60;;;;;;5077591;28;20052;-73
2022/08/03 08:28:37;;;;;;;14.65;3.47;;;28.00;96.90;;;;;;5077491;28;20047;-74
2022/08/03 08:31:02;;;;;;;13.90;3.65;;;28.10;97.20;;;;;;5074633;28;20054;-73
2022/08/03 08:33:28;;;;;;;13.90;3.78;;;28.10;96.20;;;;;;5073402;28;20184;-75
2022/08/03 08:35:54;;;;;;;14.40;3.75;;;28.30;96.40;;;;;;5063351;28;20475;-74
2022/08/03 08:38:20;;;;;;;14.38;3.30;;;28.40;96.10;;;;;;5063187;28;20052;-75
2022/08/03 08:40:48;;;;;;;14.93;3.78;;;28.50;95.90;;;;;;5088103;28;20510;-73
2022/08/03 08:43:13;;;;;;;15.85;3.60;;;28.70;95.80;;;;;;5057463;28;20048;-73
2022/08/03 08:45:40;;;;;;;14.70;3.88;;;28.70;95.20;;;;;;5043198;28;20090;-74
2022/08/03 08:48:08;;;;;;;16.25;3.75;;;28.60;95.00;;;;;;5049896;28;20041;-75
2022/08/03 08:50:36;;;;;;;14.10;3.28;;;28.70;95.00;;;;;;5067760;28;20098;-74
2022/08/03 08:53:05;;;;;;;14.60;3.70;;;28.80;94.80;;;;;;5060119;28;20055;-72
2022/08/03 08:55:33;;;;;;;16.00;3.90;;;28.80;94.20;;;;;;5057918;28;20182;-72
2022/08/03 08:58:02;;;;;;;20.13;4.53;;;28.80;93.80;;;;;;5070328;28;20505;-75
2022/08/03 09:00:29;;;;;;;16.58;4.13;;;28.70;93.60;;;;;;5046034;28;20049;-75
2022/08/03 09:02:55;;;;;;;13.80;3.60;;;28.70;94.10;;;;;;5072104;28;20391;-74
2022/08/03 09:05:21;;;;;;;17.45;4.32;;;28.80;95.00;;;;;;5074319;28;20041;-73
2022/08/03 09:07:48;;;;;;;14.50;3.63;;;29.00;94.00;;;;;;5056834;28;20444;-73
2022/08/03 09:10:18;;;;;;;14.20;3.97;;;29.00;93.00;;;;;;5073796;28;20414;-72
2022/08/03 09:12:47;;;;;;;14.88;3.90;;;29.10;93.50;;;;;;5058806;28;20373;-74
2022/08/03 09:15:27;;;;;;;15.77;3.70;;;29.30;93.70;;;;;;5060620;28;20056;-73
2022/08/03 09:17:55;;;;;;;11.80;3.22;;;29.40;93.80;;;;;;5073952;28;20055;-74
2022/08/03 09:20:23;;;;;;;14.80;3.45;;;29.60;93.60;;;;;;5067163;28;20048;-74
2022/08/03 09:23:01;;;;;;;11.23;3.40;;;29.70;91.90;;;;;;5054829;28;20056;-74
2022/08/03 09:25:29;;;;;;;13.30;3.63;;;29.70;92.10;;;;;;5037174;28;20102;-75
2022/08/03 09:28:10;;;;;;;18.75;4.30;;;29.80;92.40;;;;;;5067068;28;20552;-73
2022/08/03 09:30:38;;;;;;;14.60;3.78;;;30.00;91.90;;;;;;5061098;28;20110;-74
2022/08/03 09:33:10;;;;;;;13.52;3.53;;;30.20;91.20;;;;;;5072926;28;20056;-74
2022/08/03 09:35:44;;;;;;;17.00;3.83;;;30.20;90.70;;;;;;5072908;28;20056;-73
2022/08/03 09:38:13;;;;;;;15.98;3.88;;;30.40;90.70;;;;;;5063120;28;20063;-74
2022/08/03 09:40:39;;;;;;;13.95;3.47;;;30.50;89.10;;;;;;5053033;28;20056;-73
2022/08/03 09:43:07;;;;;;;14.82;3.90;;;30.50;88.30;;;;;;5073381;28;20060;-76
2022/08/03 09:45:37;;;;;;;16.40;3.90;;;30.50;86.80;;;;;;5072606;28;20044;-74
2022/08/03 09:48:22;;;;;;;16.13;4.15;;;30.50;87.80;;;;;;5056617;28;20059;-76
2022/08/03 09:51:00;;;;;;;14.52;3.90;;;30.40;88.10;;;;;;5059324;28;20060;-72
2022/08/03 09:53:27;;;;;;;16.20;3.58;;;30.50;88.10;;;;;;5063267;28;20056;-74
2022/08/03 09:56:00;;;;;;;11.48;3.53;;;30.40;87.00;;;;;;5065142;28;20053;-74
2022/08/03 09:58:28;;;;;;;16.83;3.92;;;30.50;85.90;;;;;;5052846;28;20053;-74
2022/08/03 10:00:56;;;;;;;16.20;3.88;;;30.50;87.20;;;;;;5067554;28;20053;-74
2022/08/03 10:03:24;;;;;;;16.75;3.55;;;30.50;87.30;;;;;;5069183;28;20048;-74
2022/08/03 10:05:50;;;;;;;15.55;4.05;;;30.60;86.40;;;;;;5066196;28;20049;-75
2022/08/03 10:08:18;;;;;;;16.20;3.70;;;30.70;86.10;;;;;;5058812;28;20514;-74
2022/08/03 10:10:47;;;;;;;13.65;3.47;;;30.80;84.80;;;;;;5073008;28;20399;-74
2022/08/03 10:13:14;;;;;;;13.40;3.95;;;30.80;84.10;;;;;;5061952;28;20123;-74
2022/08/03 10:15:40;;;;;;;16.17;3.67;;;30.90;84.80;;;;;;5072790;28;20048;-74
2022/08/03 10:18:07;;;;;;;14.98;4.10;;;31.00;85.30;;;;;;5069288;28;20063;-75
2022/08/03 10:20:48;;;;;;;15.23;3.88;;;31.10;83.10;;;;;;5061027;28;20415;-74
2022/08/03 10:23:15;;;;;;;16.13;3.50;;;31.20;82.80;;;;;;5057129;28;20048;-77
2022/08/03 10:25:43;;;;;;;15.60;4.15;;;31.20;81.90;;;;;;5063602;28;20045;-74
2022/08/03 10:28:15;;;;;;;17.02;3.90;;;31.40;82.50;;;;;;5067060;28;20123;-74
2022/08/03 10:30:46;;;;;;;15.70;3.58;;;31.20;80.80;;;;;;5055688;28;20040;-74
2022/08/03 10:33:26;;;;;;;15.32;3.88;;;31.30;79.90;;;;;;5055123;28;20105;-75
2022/08/03 10:35:56;;;;;;;13.85;3.63;;;31.40;79.90;;;;;;5067079;28;20539;-74
2022/08/03 10:38:46;;;;;;;13.93;3.60;;;31.50;80.10;;;;;;5067980;28;20056;-73
2022/08/03 10:41:14;;;;;;;14.52;3.08;;;31.60;77.40;;;;;;5095964;28;20051;-77
2022/08/03 10:44:16;;;;;;;15.02;3.35;;;31.70;76.90;;;;;;5062714;28;20049;-72
2022/08/03 10:46:43;;;;;;;16.38;3.78;;;31.80;75.70;;;;;;5088454;28;20051;-74
2022/08/03 10:49:13;;;;;;;19.27;3.88;;;31.80;74.90;;;;;;5086922;28;20044;-72
2022/08/03 10:51:40;;;;;;;14.20;3.60;;;31.70;76.50;;;;;;5073131;28;20487;-73
2022/08/03 10:54:09;;;;;;;11.85;3.40;;;31.90;75.60;;;;;;5074830;28;20109;-75
2022/08/03 10:59:38;;;;;;;13.40;3.30;;;31.60;72.80;;;;;;5091196;28;20147;-74
2022/08/03 11:02:07;;;;;;;16.52;3.28;;;31.60;73.20;;;;;;5103368;28;20490;-76
2022/08/03 11:04:33;;;;;;;13.98;3.40;;;31.70;71.30;;;;;;5071391;28;20059;-76
2022/08/03 11:07:21;;;;;;;15.43;3.60;;;31.90;71.30;;;;;;5074734;28;20406;-74
2022/08/03 11:09:52;;;;;;;13.05;3.17;;;31.90;68.70;;;;;;5049795;28;20048;-74
2022/08/03 11:12:32;;;;;;;12.50;3.35;;;31.90;66.90;;;;;;5074156;28;20036;-76
2022/08/03 11:15:01;;;;;;;14.32;3.20;;;32.00;67.20;;;;;;5074262;28;20077;-76
2022/08/03 11:17:26;;;;;;;12.50;3.30;;;32.00;66.00;;;;;;5073986;28;20080;-76
2022/08/03 11:19:53;;;;;;;15.80;3.50;;;32.00;65.30;;;;;;5087680;28;20079;-74
2022/08/03 11:22:20;;;;;;;13.93;3.40;;;32.10;65.60;;;;;;5074720;28;20079;-75
2022/08/03 11:24:49;;;;;;;13.88;3.28;;;32.20;64.90;;;;;;5089834;28;20428;-76
2022/08/03 11:27:31;;;;;;;13.55;3.08;;;32.30;65.20;;;;;;5074369;28;20529;-75
2022/08/03 11:30:06;;;;;;;17.50;3.50;;;32.30;63.70;;;;;;5091684;28;20113;-75
2022/08/03 11:32:43;;;;;;;14.15;3.35;;;32.10;63.40;;;;;;5073534;28;20055;-74
2022/08/03 11:35:27;;;;;;;12.30;3.20;;;32.00;63.10;;;;;;5089326;28;20036;-74
2022/08/03 11:37:56;;;;;;;18.38;3.40;;;32.00;61.40;;;;;;5050128;28;20052;-75
2022/08/03 11:40:34;;;;;;;13.40;3.38;;;31.90;62.20;;;;;;5073575;28;20041;-75
2022/08/03 11:43:00;;;;;;;15.77;3.15;;;31.70;61.80;;;;;;5075202;28;20123;-75
2022/08/03 11:45:26;;;;;;;12.88;3.13;;;31.60;62.60;;;;;;5074375;28;20048;-76
2022/08/03 11:47:54;;;;;;;14.00;3.20;;;31.60;64.00;;;;;;5074170;28;20710;-74
2022/08/03 11:50:21;;;;;;;16.08;3.33;;;31.70;63.20;;;;;;5058571;28;20477;-76
2022/08/03 11:52:48;;;;;;;12.07;3.13;;;31.70;61.80;;;;;;5074745;28;20048;-74
2022/08/03 11:55:17;;;;;;;15.75;3.35;;;31.70;61.60;;;;;;5070087;28;20468;-76
2022/08/03 11:57:45;;;;;;;17.42;3.40;;;31.70;62.00;;;;;;5072749;28;20052;-72
2022/08/03 12:00:26;;;;;;;14.85;3.13;;;31.70;61.90;;;;;;5075690;28;20115;-74
2022/08/03 12:03:04;;;;;;;13.00;3.08;;;31.80;60.00;;;;;;5106794;28;20696;-75
2022/08/03 12:05:44;;;;;;;13.70;3.05;;;31.80;61.50;;;;;;5079027;28;20124;-74
2022/08/03 12:08:11;;;;;;;13.73;2.90;;;31.80;60.30;;;;;;5072943;28;20384;-76
2022/08/03 12:10:40;;;;;;;13.45;3.35;;;31.90;61.10;;;;;;5073201;28;20549;-76
2022/08/03 12:13:09;;;;;;;13.55;2.90;;;31.90;60.40;;;;;;5073775;28;20080;-76
2022/08/03 12:15:37;;;;;;;12.48;3.05;;;32.10;60.70;;;;;;5074123;28;20123;-75
2022/08/03 12:18:12;;;;;;;11.93;3.10;;;32.20;59.10;;;;;;5055444;28;20093;-75
2022/08/03 12:20:38;;;;;;;13.45;2.90;;;32.30;59.40;;;;;;5054457;28;20123;-71
2022/08/03 12:23:06;;;;;;;11.88;2.83;;;32.20;59.30;;;;;;5073189;28;20112;-74
2022/08/03 12:25:33;;;;;;;11.95;3.08;;;32.20;59.00;;;;;;5071303;28;20114;-75
2022/08/03 12:28:25;;;;;;;14.38;3.20;;;32.30;58.70;;;;;;5075387;28;20095;-73
2022/08/03 12:30:52;;;;;;;13.68;3.40;;;32.30;57.90;;;;;;5071479;28;20128;-74
2022/08/03 12:33:24;;;;;;;13.85;3.13;;;32.30;58.80;;;;;;5073379;28;20059;-73
2022/08/03 12:36:10;;;;;;;13.95;2.92;;;32.40;58.80;;;;;;5074753;28;20040;-74
2022/08/03 12:38:37;;;;;;;11.57;3.10;;;32.40;57.80;;;;;;5056307;28;20044;-75
2022/08/03 12:41:12;;;;;;;13.55;2.85;;;32.40;59.50;;;;;;5056539;28;20049;-75
2022/08/03 12:43:48;;;;;;;13.75;2.92;;;32.50;55.70;;;;;;5072533;28;20044;-72
2022/08/03 12:46:16;;;;;;;12.07;3.05;;;32.60;55.60;;;;;;5071216;28;20510;-74
2022/08/03 12:49:18;;;;;;;13.50;2.92;;;32.50;56.00;;;;;;5071721;28;20076;-76
2022/08/03 12:51:43;;;;;;;12.07;2.70;;;32.40;55.70;;;;;;5032759;28;20088;-73
2022/08/03 12:54:18;;;;;;;11.57;3.00;;;32.40;55.00;;;;;;5059423;28;20461;-75
2022/08/03 12:57:04;;;;;;;11.60;2.88;;;32.40;55.30;;;;;;5072312;28;20055;-76